Time;durP1;ratioP1;P1;durP2;ratioP2;P2;SDS_P1;SDS_P2;PMS_P1;PMS_P2;Temp;Humidity;BMP_temperature;BMP_pressure;BME280_temperature;BME280_humidity;BME280_pressure;Samples;Min_cycle;Max_cycle;Signal;HPM_P1;HPM_P2
2022/08/14 00:01:33;;;;;;;8.38;5.40;;;;;;;23.70;45.55;101039.47;5116019;28;20024;-62
2022/08/14 00:03:59;;;;;;;15.13;5.78;;;;;;;23.73;45.24;101028.56;5115431;28;20023;-62
2022/08/14 00:06:24;;;;;;;7.50;5.30;;;;;;;23.82;44.82;101028.19;5116068;28;20106;-62
2022/08/14 00:08:50;;;;;;;7.75;5.30;;;;;;;23.78;45.03;101026.56;5115728;28;20404;-62
2022/08/14 00:11:15;;;;;;;5.82;4.93;;;;;;;23.79;45.32;101033.69;5115927;28;20422;-61
2022/08/14 00:13:42;;;;;;;12.25;5.70;;;;;;;23.73;45.07;101029.44;5115752;28;20473;-62
2022/08/14 00:16:12;;;;;;;7.75;5.70;;;;;;;23.72;45.23;101021.38;5116261;28;20388;-61
2022/08/14 00:18:38;;;;;;;7.63;5.75;;;;;;;23.66;45.00;101017.13;5115783;28;20032;-62
2022/08/14 00:21:04;;;;;;;8.82;6.07;;;;;;;23.54;45.11;101023.00;5115383;28;20016;-62
2022/08/14 00:23:29;;;;;;;8.63;5.72;;;;;;;23.55;45.69;101024.75;5115654;28;20054;-61
2022/08/14 00:25:56;;;;;;;8.93;5.45;;;;;;;23.37;45.44;101018.25;5115629;28;20039;-62
2022/08/14 00:28:25;;;;;;;8.95;5.57;;;;;;;23.42;45.96;101010.00;5115819;28;20102;-61
2022/08/14 00:30:52;;;;;;;11.20;5.50;;;;;;;23.33;45.95;101007.66;5115409;28;20038;-62
2022/08/14 00:33:18;;;;;;;10.48;5.75;;;;;;;23.18;46.59;101001.94;5115644;28;20103;-62
2022/08/14 00:35:44;;;;;;;10.18;6.22;;;;;;;23.20;46.49;101000.06;5115373;28;20118;-62
2022/08/14 00:38:09;;;;;;;11.25;6.00;;;;;;;23.16;45.68;101002.94;5115474;28;20016;-62
2022/08/14 00:40:35;;;;;;;6.88;5.90;;;;;;;23.31;45.59;100998.78;5115160;28;20047;-62
2022/08/14 00:43:01;;;;;;;9.80;5.80;;;;;;;23.30;45.49;100987.13;5115194;28;20157;-61
2022/08/14 00:45:26;;;;;;;9.57;6.03;;;;;;;23.32;45.60;100987.03;5115370;28;20035;-62
2022/08/14 00:47:52;;;;;;;10.30;5.93;;;;;;;23.43;45.34;100988.38;5115144;28;20027;-61
2022/08/14 00:50:20;;;;;;;11.50;6.30;;;;;;;23.41;44.96;100990.25;5114911;28;20541;-62
2022/08/14 00:52:47;;;;;;;8.70;5.85;;;;;;;23.40;45.19;100982.22;5114955;28;20103;-62
2022/08/14 00:55:13;;;;;;;7.88;5.78;;;;;;;23.40;44.34;100975.00;5114910;28;20023;-62
2022/08/14 00:57:39;;;;;;;8.65;6.20;;;;;;;23.44;44.81;100968.53;5114998;28;20020;-62
2022/08/14 01:00:10;;;;;;;8.70;5.88;;;;;;;23.32;45.18;100976.25;5114955;28;20024;-62
2022/08/14 01:02:36;;;;;;;7.40;6.47;;;;;;;23.33;45.28;100970.78;5096841;28;20032;-61
2022/08/14 01:05:06;;;;;;;6.90;6.07;;;;;;;23.37;45.10;100967.03;5114664;28;20034;-62
2022/08/14 01:07:32;;;;;;;8.93;6.03;;;;;;;23.33;45.16;100964.50;5114941;28;20482;-62
2022/08/14 01:10:00;;;;;;;9.32;6.47;;;;;;;23.37;45.06;100958.06;5114672;28;20032;-61
2022/08/14 01:12:27;;;;;;;7.88;6.05;;;;;;;23.31;45.25;100955.63;5114692;28;20063;-62
2022/08/14 01:14:54;;;;;;;7.32;6.15;;;;;;;23.17;45.58;100953.50;5114145;28;20039;-62
2022/08/14 01:17:21;;;;;;;7.55;6.35;;;;;;;23.12;45.52;100950.94;5114692;28;20028;-61
2022/08/14 01:22:32;;;;;;;7.72;6.25;;;;;;;23.10;45.41;100941.19;5114891;28;20095;-62
2022/08/14 01:24:58;;;;;;;9.20;6.65;;;;;;;23.07;45.52;100950.25;5114614;28;20442;-62
2022/08/14 01:27:23;;;;;;;8.57;6.50;;;;;;;23.09;45.56;100948.41;5114364;28;20497;-62
2022/08/14 01:29:52;;;;;;;11.98;7.22;;;;;;;23.11;45.40;100945.63;5114271;28;20027;-62
2022/08/14 01:32:20;;;;;;;8.98;6.88;;;;;;;23.08;45.63;100945.75;5114226;28;20035;-62
2022/08/14 01:34:52;;;;;;;8.93;6.70;;;;;;;23.11;45.98;100945.63;5114185;28;20027;-61
2022/08/14 01:37:18;;;;;;;8.65;6.72;;;;;;;23.02;45.54;100946.00;5114417;28;20039;-61
2022/08/14 01:39:43;;;;;;;8.27;6.07;;;;;;;23.11;45.79;100934.84;5114103;28;20143;-62
2022/08/14 01:42:08;;;;;;;8.52;6.20;;;;;;;23.11;45.58;100943.81;5114010;28;20108;-62
2022/08/14 01:44:34;;;;;;;8.45;6.50;;;;;;;23.09;45.59;100944.81;5113804;28;20069;-62
2022/08/14 01:47:08;;;;;;;8.60;6.40;;;;;;;22.89;46.63;100943.75;5114438;28;20080;-62
2022/08/14 01:49:33;;;;;;;7.78;6.28;;;;;;;22.70;46.74;100940.88;5114023;28;20055;-61
2022/08/14 01:51:59;;;;;;;9.90;6.60;;;;;;;22.62;47.01;100944.81;5095813;28;20066;-61
2022/08/14 01:54:24;;;;;;;8.63;6.72;;;;;;;22.55;46.91;100936.06;5113977;28;20027;-61
2022/08/14 01:56:51;;;;;;;9.68;6.60;;;;;;;22.49;47.59;100936.31;5113743;28;20439;-62
2022/08/14 01:59:18;;;;;;;10.00;6.55;;;;;;;22.60;47.27;100935.88;5113980;28;20028;-62
2022/08/14 02:01:44;;;;;;;11.73;6.50;;;;;;;22.42;48.05;100946.41;5113891;28;20099;-62
2022/08/14 02:04:09;;;;;;;8.73;6.68;;;;;;;22.35;48.21;100941.31;5113852;28;20117;-62
2022/08/14 02:06:36;;;;;;;9.00;6.32;;;;;;;22.23;48.66;100938.13;5113781;28;20043;-61
2022/08/14 02:09:06;;;;;;;8.73;6.30;;;;;;;22.08;48.86;100933.25;5113631;28;20473;-61
2022/08/14 02:11:33;;;;;;;10.13;6.93;;;;;;;21.98;48.81;100918.38;5113840;28;20047;-62
2022/08/14 02:14:05;;;;;;;9.52;7.00;;;;;;;21.85;49.08;100927.81;5113448;28;20477;-62
2022/08/14 02:16:38;;;;;;;8.55;6.55;;;;;;;21.78;49.40;100934.31;5113768;28;20034;-62
2022/08/14 02:19:10;;;;;;;8.90;6.82;;;;;;;21.71;49.89;100934.56;5113301;28;20088;-61
2022/08/14 02:21:38;;;;;;;9.50;6.55;;;;;;;21.74;49.55;100938.94;5113588;28;20019;-61
2022/08/14 02:24:05;;;;;;;9.57;6.43;;;;;;;21.82;49.56;100930.59;5095139;28;20138;-61
2022/08/14 02:26:34;;;;;;;9.25;6.07;;;;;;;21.91;49.38;100935.66;5113149;28;20020;-61
2022/08/14 02:29:08;;;;;;;9.13;6.57;;;;;;;21.67;49.91;100929.31;5113449;28;20020;-62
2022/08/14 02:31:37;;;;;;;8.88;6.35;;;;;;;21.57;50.16;100933.25;5113298;28;20032;-62
2022/08/14 02:34:05;;;;;;;9.27;6.50;;;;;;;21.45;50.71;100937.22;5113594;28;20026;-62
2022/08/14 02:36:31;;;;;;;10.88;7.10;;;;;;;21.33;51.35;100937.63;5113293;28;20032;-61
2022/08/14 02:38:57;;;;;;;7.35;6.60;;;;;;;21.24;51.52;100931.59;5113453;28;20023;-61
2022/08/14 02:41:24;;;;;;;8.70;6.30;;;;;;;21.25;51.75;100941.41;5112908;28;20059;-61
2022/08/14 02:43:49;;;;;;;8.02;6.70;;;;;;;21.25;51.83;100933.34;5113081;28;20040;-61
2022/08/14 02:46:15;;;;;;;13.27;7.35;;;;;;;21.17;52.14;100929.13;5113217;28;20035;-61
2022/08/14 02:48:42;;;;;;;9.50;7.32;;;;;;;21.10;52.44;100943.69;5112971;28;20076;-61
2022/08/14 02:51:11;;;;;;;9.30;7.13;;;;;;;21.10;52.56;100936.50;5113190;28;20020;-61
2022/08/14 02:53:39;;;;;;;10.93;7.35;;;;;;;21.10;52.46;100936.50;5113230;28;20099;-61
2022/08/14 02:56:06;;;;;;;9.00;7.50;;;;;;;20.97;52.91;100930.63;5113233;28;20512;-61
2022/08/14 02:58:36;;;;;;;11.32;7.97;;;;;;;20.91;52.97;100929.94;5094834;28;20034;-61
2022/08/14 03:01:02;;;;;;;10.27;7.45;;;;;;;20.95;52.86;100929.81;5095453;28;20027;-62
2022/08/14 03:03:28;;;;;;;8.60;7.68;;;;;;;20.96;52.89;100922.63;5113045;28;20023;-61
2022/08/14 03:05:53;;;;;;;8.68;7.15;;;;;;;21.10;52.20;100919.50;5112821;28;20050;-61
2022/08/14 03:08:19;;;;;;;8.75;7.15;;;;;;;21.14;52.14;100915.78;5113262;28;20032;-61
2022/08/14 03:10:45;;;;;;;11.70;7.70;;;;;;;21.06;51.96;100912.47;5112895;28;20100;-61
2022/08/14 03:13:10;;;;;;;8.85;7.38;;;;;;;20.96;52.22;100907.38;5113109;28;20610;-61
2022/08/14 03:15:39;;;;;;;12.18;7.47;;;;;;;20.92;52.32;100911.09;5112895;28;20408;-61
2022/08/14 03:18:09;;;;;;;7.82;6.65;;;;;;;20.87;52.28;100912.16;5113228;28;20091;-61
2022/08/14 03:20:34;;;;;;;10.70;7.53;;;;;;;20.73;53.00;100908.09;5112818;28;20031;-61
2022/08/14 03:23:00;;;;;;;8.88;7.28;;;;;;;20.70;52.99;100912.69;5112881;28;20029;-61
2022/08/14 03:25:30;;;;;;;13.50;7.97;;;;;;;20.62;53.35;100912.03;5112961;28;20020;-61
2022/08/14 03:27:55;;;;;;;12.10;8.20;;;;;;;20.39;54.72;100904.63;5113020;28;20055;-60
2022/08/14 03:30:21;;;;;;;11.93;7.70;;;;;;;20.26;54.84;100901.41;5112894;28;20473;-61
2022/08/14 03:32:46;;;;;;;11.82;7.90;;;;;;;20.15;55.40;100900.81;5112867;28;20024;-61
2022/08/14 03:35:11;;;;;;;9.27;8.00;;;;;;;20.31;54.86;100899.47;5112805;28;20027;-61
2022/08/14 03:37:37;;;;;;;11.30;7.57;;;;;;;20.30;54.67;100899.50;5113194;28;20107;-61
2022/08/14 03:40:05;;;;;;;9.30;7.85;;;;;;;20.33;54.72;100900.28;5116428;28;20039;-61
2022/08/14 03:42:30;;;;;;;9.40;7.88;;;;;;;20.41;54.71;100902.75;5116294;28;20394;-61
2022/08/14 03:44:56;;;;;;;10.13;7.97;;;;;;;20.45;54.19;100899.94;5116423;28;20039;-61
2022/08/14 03:47:22;;;;;;;10.88;8.02;;;;;;;20.36;54.12;100893.97;5116444;28;20093;-61
2022/08/14 03:49:47;;;;;;;9.40;8.00;;;;;;;20.25;54.19;100889.75;5116105;28;20024;-61
2022/08/14 03:52:13;;;;;;;10.65;8.07;;;;;;;20.17;54.25;100894.50;5116336;28;20548;-62
2022/08/14 03:54:38;;;;;;;8.68;7.40;;;;;;;20.22;55.17;100894.38;5116419;28;20026;-61
2022/08/14 03:57:04;;;;;;;9.07;7.97;;;;;;;20.06;54.96;100895.72;5116348;28;20438;-61
2022/08/14 03:59:31;;;;;;;10.18;7.80;;;;;;;19.98;55.44;100898.59;5116151;28;20102;-61
2022/08/14 04:01:57;;;;;;;10.88;8.02;;;;;;;19.80;56.79;100902.66;5116083;28;20125;-62
2022/08/14 04:04:22;;;;;;;10.45;7.80;;;;;;;19.82;56.27;100892.75;5116043;28;20050;-61
2022/08/14 04:06:48;;;;;;;10.65;8.13;;;;;;;19.84;56.67;100898.09;5116011;28;20030;-61
2022/08/14 04:09:13;;;;;;;13.98;8.07;;;;;;;19.85;56.46;100898.06;5115998;28;20500;-61
2022/08/14 04:11:39;;;;;;;10.63;7.95;;;;;;;19.88;56.07;100900.66;5115926;28;20024;-61
2022/08/14 04:14:05;;;;;;;11.93;7.78;;;;;;;19.96;55.89;100903.13;5115972;28;20031;-61
2022/08/14 04:16:30;;;;;;;12.40;7.82;;;;;;;19.86;56.07;100901.59;5115777;28;20035;-61
2022/08/14 04:18:57;;;;;;;13.40;7.75;;;;;;;19.84;55.91;100895.41;5115868;28;20023;-61
2022/08/14 04:21:26;;;;;;;11.95;7.93;;;;;;;19.84;55.93;100890.06;5115619;28;20485;-61
2022/08/14 04:23:53;;;;;;;12.07;8.75;;;;;;;19.75;56.58;100893.88;5115691;28;20019;-61
2022/08/14 04:26:21;;;;;;;12.30;8.25;;;;;;;19.72;56.88;100889.44;5115847;28;20031;-61
2022/08/14 04:28:48;;;;;;;12.45;8.32;;;;;;;19.74;56.34;100892.06;5115620;28;20032;-61
2022/08/14 04:31:14;;;;;;;12.88;10.18;;;;;;;19.68;57.01;100892.25;5115531;28;20542;-61
2022/08/14 04:33:40;;;;;;;11.60;8.38;;;;;;;19.77;56.34;100886.63;5115394;28;20533;-61
2022/08/14 04:36:06;;;;;;;12.77;8.27;;;;;;;19.75;56.46;100881.34;5115758;28;20115;-60
2022/08/14 04:43:59;;;;;;;15.18;9.63;;;;;;;19.83;55.85;100862.38;5115637;28;20061;-61
2022/08/14 04:46:27;;;;;;;10.35;8.10;;;;;;;19.75;56.36;100867.06;5115196;28;20544;-61
2022/08/14 04:48:52;;;;;;;10.10;8.82;;;;;;;19.57;57.30;100857.66;5115310;28;20059;-61
2022/08/14 04:51:20;;;;;;;11.45;8.95;;;;;;;19.41;57.75;100864.34;5115118;28;20059;-61
2022/08/14 04:53:47;;;;;;;11.63;8.65;;;;;;;19.37;57.94;100866.19;5115341;28;20102;-61
2022/08/14 04:56:15;;;;;;;12.77;8.90;;;;;;;19.46;57.99;100868.66;5115049;28;20115;-61
2022/08/14 04:58:41;;;;;;;11.02;8.35;;;;;;;19.62;57.42;100862.94;5114943;28;20080;-61
2022/08/14 05:01:08;;;;;;;9.57;8.00;;;;;;;19.59;57.44;100860.28;5115263;28;20419;-61
2022/08/14 05:03:35;;;;;;;9.15;7.78;;;;;;;19.59;57.46;100863.84;5114886;28;20020;-61
2022/08/14 05:06:06;;;;;;;15.00;8.57;;;;;;;19.62;57.60;100858.44;5115043;28;20096;-61
2022/08/14 05:08:33;;;;;;;9.75;8.55;;;;;;;19.67;57.61;100851.16;5115091;28;20030;-61
2022/08/14 05:11:01;;;;;;;11.73;8.10;;;;;;;19.80;57.28;100850.84;5114704;28;20019;-61
2022/08/14 05:13:29;;;;;;;14.40;8.65;;;;;;;19.85;57.31;100852.47;5096359;28;20121;-61
2022/08/14 05:15:57;;;;;;;12.18;8.95;;;;;;;19.92;57.26;100853.19;5114640;28;20016;-61
2022/08/14 05:18:32;;;;;;;11.52;8.32;;;;;;;19.96;57.35;100853.06;5114952;28;20031;-61
2022/08/14 05:21:00;;;;;;;9.65;8.63;;;;;;;20.02;57.28;100857.34;5114347;28;20024;-61
2022/08/14 05:23:28;;;;;;;23.10;16.33;;;;;;;20.14;57.06;100853.47;5114591;28;20492;-61
2022/08/14 05:26:14;;;;;;;15.70;11.63;;;;;;;20.30;56.87;100851.19;5114376;28;20053;-61
2022/08/14 05:28:44;;;;;;;13.43;9.50;;;;;;;20.36;57.32;100851.91;5114488;28;20397;-61
2022/08/14 05:31:12;;;;;;;16.77;9.45;;;;;;;20.50;56.69;100849.69;5114244;28;20031;-62
2022/08/14 05:33:39;;;;;;;15.05;9.50;;;;;;;20.71;55.64;100852.66;5114448;28;20061;-62
2022/08/14 05:36:07;;;;;;;17.65;10.77;;;;;;;20.94;54.79;100854.63;5114153;28;20032;-62
2022/08/14 05:38:38;;;;;;;14.13;10.57;;;;;;;21.15;54.27;100837.78;5114313;28;20069;-61
2022/08/14 05:41:13;;;;;;;11.50;10.23;;;;;;;21.26;54.73;100850.91;5114103;28;20069;-61
2022/08/14 05:43:39;;;;;;;14.68;10.60;;;;;;;21.50;53.98;100847.41;5114435;28;20035;-61
2022/08/14 05:46:06;;;;;;;14.10;10.50;;;;;;;21.64;54.14;100854.13;5114124;28;20024;-61
2022/08/14 05:48:31;;;;;;;14.73;11.20;;;;;;;21.73;53.60;100853.81;5113935;28;20042;-61
2022/08/14 05:50:57;;;;;;;16.23;11.80;;;;;;;21.97;52.95;100838.59;5113886;28;20032;-62
2022/08/14 05:53:25;;;;;;;14.80;11.15;;;;;;;22.15;52.58;100842.44;5095679;28;20051;-61
2022/08/14 05:55:51;;;;;;;14.32;11.48;;;;;;;22.33;52.60;100844.44;5114081;28;20102;-61
2022/08/14 05:58:17;;;;;;;14.77;11.65;;;;;;;22.40;53.04;100843.28;5114073;28;20525;-61
2022/08/14 06:00:46;;;;;;;17.98;12.07;;;;;;;22.56;52.48;100842.69;5113652;28;20028;-62
2022/08/14 06:03:15;;;;;;;13.77;12.40;;;;;;;22.78;52.78;100846.28;5113612;28;20039;-62
2022/08/14 06:05:41;;;;;;;14.50;12.23;;;;;;;22.95;51.37;100843.84;5113636;28;20094;-61
2022/08/14 06:08:24;;;;;;;19.98;12.43;;;;;;;23.12;51.08;100843.13;5113670;28;20047;-61
2022/08/14 06:10:50;;;;;;;;;;;;;;;23.40;50.16;100850.94;5114176;28;20030;-61
2022/08/14 06:13:15;;;;;;;15.85;12.73;;;;;;;23.46;50.34;100841.69;5113724;28;19912;-61
2022/08/14 06:15:42;;;;;;;15.63;12.77;;;;;;;23.54;50.39;100844.94;5113469;28;20027;-61
2022/08/14 06:18:07;;;;;;;14.60;12.45;;;;;;;23.60;50.40;100843.84;5113615;28;20057;-62
2022/08/14 06:20:33;;;;;;;15.05;12.43;;;;;;;23.70;50.02;100847.91;5095161;28;20031;-62
2022/08/14 06:22:58;;;;;;;14.13;12.55;;;;;;;23.83;49.39;100842.84;5113642;28;20072;-61
2022/08/14 06:25:24;;;;;;;16.63;12.20;;;;;;;23.97;49.23;100843.97;5113617;28;20106;-62
2022/08/14 06:27:50;;;;;;;15.35;12.55;;;;;;;24.10;48.45;100838.03;5095337;28;20027;-62
2022/08/14 06:30:18;;;;;;;14.10;11.85;;;;;;;24.26;48.50;100838.22;5113259;28;20031;-61
2022/08/14 06:32:45;;;;;;;13.32;12.02;;;;;;;24.27;48.08;100837.25;5113137;28;20020;-62
2022/08/14 06:35:13;;;;;;;13.25;11.85;;;;;;;24.43;48.30;100836.50;5113373;28;20020;-62
2022/08/14 06:37:42;;;;;;;14.43;11.40;;;;;;;24.47;47.84;100837.25;5113243;28;20404;-62
2022/08/14 06:40:09;;;;;;;14.90;11.57;;;;;;;24.70;47.66;100831.59;5113251;28;20491;-62
2022/08/14 06:42:35;;;;;;;17.85;11.60;;;;;;;24.92;47.34;100828.75;5112924;28;20124;-62
2022/08/14 06:45:01;;;;;;;16.15;11.73;;;;;;;25.03;47.10;100821.94;5113026;28;20075;-62
2022/08/14 06:47:26;;;;;;;14.68;11.30;;;;;;;25.24;46.24;100818.19;5113223;28;20028;-62
2022/08/14 06:49:52;;;;;;;15.63;11.00;;;;;;;25.45;46.45;100819.78;5113224;28;20024;-62
2022/08/14 06:52:17;;;;;;;12.35;10.80;;;;;;;25.62;45.97;100824.31;5113015;28;20023;-62
2022/08/14 06:54:43;;;;;;;12.23;9.90;;;;;;;25.88;45.25;100819.41;5113219;28;20024;-62
2022/08/14 06:57:09;;;;;;;11.85;9.93;;;;;;;26.01;44.67;100822.34;5113478;28;20024;-62
2022/08/14 06:59:34;;;;;;;12.90;9.25;;;;;;;26.18;44.92;100820.44;5094884;28;20389;-62
2022/08/14 07:07:38;;;;;;;10.98;8.25;;;;;;;26.35;44.00;100816.81;5113455;28;20051;-62
2022/08/14 07:10:04;;;;;;;11.15;8.55;;;;;;;26.46;43.24;100808.09;5112957;28;20116;-62
2022/08/14 07:12:30;;;;;;;10.95;8.50;;;;;;;26.60;43.38;100813.66;5094719;28;20039;-61
2022/08/14 07:14:57;;;;;;;11.18;7.95;;;;;;;26.98;42.74;100807.88;5117161;28;20020;-61
2022/08/14 07:17:22;;;;;;;11.70;8.13;;;;;;;27.03;41.91;100799.47;5116901;28;20035;-61
2022/08/14 07:19:47;;;;;;;13.82;7.70;;;;;;;27.24;42.00;100800.94;5116627;28;20023;-61
2022/08/14 07:22:13;;;;;;;10.75;7.50;;;;;;;27.33;41.42;100803.09;5116857;28;20028;-61
2022/08/14 07:24:38;;;;;;;10.25;7.57;;;;;;;27.25;40.90;100802.69;5116582;28;20031;-62
2022/08/14 07:27:04;;;;;;;12.85;7.65;;;;;;;27.50;40.97;100812.94;5116861;28;20380;-62
2022/08/14 07:29:29;;;;;;;9.85;7.90;;;;;;;27.65;40.57;100805.69;5116726;28;20027;-62
2022/08/14 07:31:55;;;;;;;10.45;7.07;;;;;;;27.91;40.23;100809.53;5116900;28;20032;-61
2022/08/14 07:34:20;;;;;;;13.32;7.40;;;;;;;28.02;39.85;100806.19;5116507;28;20443;-62
2022/08/14 07:36:47;;;;;;;7.90;6.95;;;;;;;28.21;38.98;100806.75;5116602;28;20020;-61
2022/08/14 07:39:12;;;;;;;14.45;7.28;;;;;;;28.30;38.44;100805.28;5116417;28;20473;-62
2022/08/14 07:41:38;;;;;;;7.97;6.78;;;;;;;28.49;38.56;100816.78;5116342;28;20043;-61
2022/08/14 07:44:03;;;;;;;13.52;6.90;;;;;;;28.68;38.25;100811.00;5116606;28;20463;-62
2022/08/14 07:46:29;;;;;;;11.15;6.63;;;;;;;28.76;37.46;100795.06;5116625;28;20027;-61
2022/08/14 07:48:55;;;;;;;10.52;6.75;;;;;;;28.94;37.26;100792.94;5116331;28;20509;-62
2022/08/14 07:51:21;;;;;;;9.68;6.88;;;;;;;29.20;36.59;100796.66;5116241;28;20496;-61
2022/08/14 07:53:47;;;;;;;11.73;6.82;;;;;;;29.41;36.67;100794.31;5116316;28;20114;-62
2022/08/14 07:56:12;;;;;;;11.65;6.82;;;;;;;29.53;36.11;100796.19;5098073;28;20023;-62
2022/08/14 07:58:38;;;;;;;7.55;6.40;;;;;;;29.65;36.21;100798.13;5116084;28;20030;-62
2022/08/14 08:01:05;;;;;;;10.18;6.47;;;;;;;29.66;35.58;100804.44;5116215;28;20032;-62
2022/08/14 08:03:34;;;;;;;15.98;6.68;;;;;;;29.80;35.48;100795.28;5116429;28;20073;-62
2022/08/14 08:06:00;;;;;;;12.70;6.85;;;;;;;29.68;35.32;100797.03;5116319;28;20088;-61
2022/08/14 08:08:26;;;;;;;9.55;6.82;;;;;;;29.97;35.12;100797.69;5115862;28;20385;-62
2022/08/14 08:10:55;;;;;;;10.88;6.53;;;;;;;30.09;34.56;100804.97;5115983;28;20039;-62
2022/08/14 08:13:20;;;;;;;11.93;6.47;;;;;;;30.28;34.58;100806.41;5116027;28;20107;-62
2022/08/14 08:15:55;;;;;;;13.30;6.68;;;;;;;30.43;34.59;100806.19;5115944;28;20023;-62
2022/08/14 08:18:21;;;;;;;13.18;7.00;;;;;;;30.29;33.53;100800.88;5116009;28;20023;-62
2022/08/14 08:20:49;;;;;;;7.45;6.63;;;;;;;30.14;33.67;100802.81;5115422;28;20467;-62
2022/08/14 08:23:17;;;;;;;10.23;6.57;;;;;;;30.16;34.00;100798.16;5115755;28;20527;-61
2022/08/14 08:25:47;;;;;;;10.15;6.50;;;;;;;30.30;34.04;100785.38;5115521;28;20102;-62
2022/08/14 08:28:16;;;;;;;8.55;6.70;;;;;;;30.20;34.44;100787.03;5115770;28;20488;-62
2022/08/14 08:30:47;;;;;;;9.60;6.75;;;;;;;30.52;33.79;100774.63;5115590;28;20032;-62
2022/08/14 08:33:15;;;;;;;12.48;6.35;;;;;;;31.13;32.22;100775.50;5115624;28;20053;-62
2022/08/14 08:35:40;;;;;;;11.30;6.05;;;;;;;31.56;31.88;100780.41;5115584;28;20049;-62
2022/08/14 08:38:11;;;;;;;9.43;6.20;;;;;;;31.84;32.19;100767.31;5115619;28;20024;-62
2022/08/14 08:40:41;;;;;;;9.98;6.40;;;;;;;32.12;31.64;100776.91;5115439;28;20024;-62
2022/08/14 08:43:28;;;;;;;9.95;6.40;;;;;;;32.52;31.50;100784.63;5115332;28;20434;-62
2022/08/14 08:46:02;;;;;;;8.32;6.22;;;;;;;32.54;30.53;100779.88;5115267;28;20117;-63
2022/08/14 08:48:29;;;;;;;13.98;6.00;;;;;;;32.81;30.15;100784.97;5096972;28;20023;-63
2022/08/14 08:50:57;;;;;;;10.48;5.60;;;;;;;33.10;29.45;100777.91;5115007;28;20016;-63
2022/08/14 08:53:30;;;;;;;9.82;5.53;;;;;;;33.53;28.87;100778.84;5115292;28;20057;-62
2022/08/14 08:55:55;;;;;;;9.43;5.80;;;;;;;33.75;28.25;100777.84;5115183;28;20027;-62
2022/08/14 08:58:21;;;;;;;13.48;5.60;;;;;;;33.88;28.56;100768.41;5115067;28;20076;-63
2022/08/14 09:00:49;;;;;;;8.63;5.70;;;;;;;34.18;28.19;100771.34;5114988;28;20028;-63
2022/08/14 09:03:19;;;;;;;12.30;5.80;;;;;;;34.09;28.20;100767.50;5115022;28;20024;-63
2022/08/14 09:06:04;;;;;;;10.48;5.72;;;;;;;34.10;27.98;100764.66;5115205;28;20049;-63
2022/08/14 09:08:34;;;;;;;10.35;5.93;;;;;;;34.06;27.60;100773.31;5097164;28;20027;-63
2022/08/14 09:11:08;;;;;;;12.25;5.45;;;;;;;34.24;27.83;100768.03;5114643;28;20034;-62
2022/08/14 09:13:34;;;;;;;9.07;5.72;;;;;;;34.18;27.81;100761.22;5114905;28;20035;-63
2022/08/14 09:16:00;;;;;;;8.38;5.60;;;;;;;34.20;27.82;100755.59;5114686;28;20411;-63
2022/08/14 09:18:26;;;;;;;8.38;5.93;;;;;;;34.50;27.35;100749.22;5114749;28;20024;-63
2022/08/14 09:20:54;;;;;;;7.75;5.70;;;;;;;34.67;28.16;100753.16;5114491;28;20042;-63
2022/08/14 09:23:19;;;;;;;11.10;5.57;;;;;;;35.09;26.79;100745.59;5114516;28;20062;-63
2022/08/14 09:25:47;;;;;;;7.32;5.82;;;;;;;35.23;26.88;100749.75;5114395;28;20434;-63
2022/08/14 09:28:15;;;;;;;11.13;5.68;;;;;;;35.19;26.48;100749.19;5114491;28;20019;-63
2022/08/14 09:30:46;;;;;;;8.85;5.35;;;;;;;35.17;25.99;100744.88;5114389;28;20485;-63
2022/08/14 09:33:30;;;;;;;10.38;5.72;;;;;;;35.20;26.57;100741.81;5114558;28;20024;-63
2022/08/14 09:36:26;;;;;;;9.80;5.38;;;;;;;35.40;26.87;100739.91;5113455;28;20051;-63
2022/08/14 09:39:31;;;;;;;8.40;5.50;;;;;;;35.70;25.41;100738.88;5114292;28;20036;-63
2022/08/14 09:42:33;;;;;;;7.82;5.70;;;;;;;35.78;25.86;100739.88;5092483;28;20051;-63
2022/08/14 09:45:14;;;;;;;9.80;5.90;;;;;;;35.76;26.45;100739.16;5093846;28;20115;-63
2022/08/14 09:47:54;;;;;;;8.27;5.43;;;;;;;35.63;25.97;100722.09;5093766;28;20028;-63
2022/08/14 09:50:28;;;;;;;6.13;5.10;;;;;;;35.83;25.61;100728.41;5093604;28;20024;-63
2022/08/14 09:53:02;;;;;;;7.80;5.68;;;;;;;35.76;25.27;100728.16;5093614;28;20119;-63
2022/08/14 09:55:32;;;;;;;9.63;5.35;;;;;;;35.58;25.70;100708.78;5093760;28;20069;-63
2022/08/14 09:58:11;;;;;;;7.53;5.00;;;;;;;35.96;25.42;100719.81;5091410;28;20092;-63
2022/08/14 10:00:48;;;;;;;9.57;5.40;;;;;;;36.05;25.39;100713.44;5093042;28;20043;-63
2022/08/14 10:03:34;;;;;;;9.18;5.20;;;;;;;36.35;25.68;100706.75;5093076;28;20085;-63
2022/08/14 10:06:07;;;;;;;9.75;6.05;;;;;;;36.32;25.29;100699.72;5093199;28;20359;-63
2022/08/14 10:08:49;;;;;;;9.43;5.57;;;;;;;36.47;25.09;100693.69;5093612;28;20024;-63
2022/08/14 10:11:30;;;;;;;9.15;5.10;;;;;;;36.70;25.06;100688.59;5093444;28;20032;-63
2022/08/14 10:14:10;;;;;;;9.40;5.13;;;;;;;36.91;23.55;100691.91;5093162;28;20458;-64
2022/08/14 10:16:42;;;;;;;7.63;4.70;;;;;;;36.78;23.50;100692.28;5093204;28;20035;-63
2022/08/14 10:19:14;;;;;;;8.32;4.90;;;;;;;36.53;23.40;100682.03;5092906;28;20470;-63
2022/08/14 10:21:42;;;;;;;9.35;5.10;;;;;;;36.62;23.67;100683.91;5093250;28;20094;-63
2022/08/14 10:24:21;;;;;;;5.95;4.95;;;;;;;36.47;24.41;100675.28;5093085;28;20428;-61
2022/08/14 10:26:59;;;;;;;6.60;5.07;;;;;;;36.65;23.78;100675.31;5092617;28;20024;-61
2022/08/14 10:29:38;;;;;;;8.98;4.70;;;;;;;36.83;23.35;100669.78;5093542;28;20043;-61
2022/08/14 10:32:05;;;;;;;7.38;4.93;;;;;;;36.95;22.75;100670.44;5092960;28;20032;-62
2022/08/14 10:34:34;;;;;;;11.40;4.72;;;;;;;37.04;23.56;100666.72;5093314;28;20024;-61
2022/08/14 10:37:19;;;;;;;7.95;4.88;;;;;;;37.07;23.47;100661.78;5093270;28;20024;-61
2022/08/14 10:40:00;;;;;;;7.13;4.63;;;;;;;37.38;23.75;100653.03;5093175;28;20035;-62
2022/08/14 10:42:36;;;;;;;7.43;5.03;;;;;;;37.55;23.45;100654.03;5109597;28;20058;-62
2022/08/14 10:45:02;;;;;;;12.15;5.38;;;;;;;37.56;22.92;100648.38;5113164;28;20545;-61
2022/08/14 10:47:38;;;;;;;7.28;4.85;;;;;;;37.81;22.66;100643.81;5096913;28;20024;-63
2022/08/14 10:50:05;;;;;;;8.43;5.22;;;;;;;37.76;22.62;100629.66;5117416;28;20517;-64
2022/08/14 10:52:33;;;;;;;9.98;5.45;;;;;;;37.76;22.86;100639.84;5117514;28;20454;-62
2022/08/14 10:55:08;;;;;;;7.93;5.03;;;;;;;38.27;22.50;100649.91;5117762;28;20031;-62
2022/08/14 10:57:45;;;;;;;10.63;5.10;;;;;;;38.20;21.53;100651.63;5117539;28;20035;-62
2022/08/14 11:00:14;;;;;;;7.30;5.30;;;;;;;38.22;21.95;100643.16;5117746;28;20123;-62
2022/08/14 11:02:40;;;;;;;6.63;4.70;;;;;;;38.47;21.15;100627.56;5117523;28;20077;-62
2022/08/14 11:05:06;;;;;;;5.85;4.68;;;;;;;38.68;21.67;100625.16;5117485;28;20024;-62
2022/08/14 11:07:35;;;;;;;5.20;4.00;;;;;;;38.52;19.56;100633.44;5117134;28;20039;-62
2022/08/14 11:10:07;;;;;;;8.25;5.03;;;;;;;38.75;21.46;100628.09;5117082;28;20023;-63
2022/08/14 11:12:45;;;;;;;7.20;4.60;;;;;;;38.54;21.09;100623.06;5117340;28;20081;-63
2022/08/14 11:15:11;;;;;;;6.25;4.80;;;;;;;38.75;20.64;100623.41;5117161;28;20028;-63
2022/08/14 11:17:37;;;;;;;9.63;4.47;;;;;;;38.71;20.13;100633.09;5117113;28;20024;-64
2022/08/14 11:20:06;;;;;;;6.72;3.88;;;;;;;38.44;19.72;100631.50;5117023;28;20384;-63
2022/08/14 11:22:32;;;;;;;4.65;3.60;;;;;;;37.83;19.25;100633.50;5116927;28;20133;-63
2022/08/14 11:25:05;;;;;;;5.47;3.35;;;;;;;37.62;19.30;100637.72;5116873;28;20027;-63
2022/08/14 11:27:33;;;;;;;7.93;3.72;;;;;;;37.46;19.39;100631.06;5117088;28;20031;-64
2022/08/14 11:30:03;;;;;;;5.53;3.90;;;;;;;37.68;19.10;100615.84;5116972;28;20051;-63
2022/08/14 11:32:29;;;;;;;6.25;3.88;;;;;;;37.81;19.30;100623.66;5116902;28;20043;-63
2022/08/14 11:35:02;;;;;;;5.93;4.18;;;;;;;37.97;19.19;100623.75;5116579;28;20038;-63
2022/08/14 11:37:29;;;;;;;6.28;3.65;;;;;;;37.99;19.88;100624.47;5116782;28;20081;-63
2022/08/14 11:39:55;;;;;;;6.72;3.90;;;;;;;37.86;19.03;100623.19;5116843;28;20032;-64